sensor_id;sensor_type;location;lat;lon;timestamp;P1;durP1;ratioP1;P2;durP2;ratioP2
8225;SDS011;4154;48.810;9.012;2023-02-28T00:00:28;2.23;;;2.03;;
8225;SDS011;4154;48.810;9.012;2023-02-28T00:02:54;2.63;;;1.87;;
8225;SDS011;4154;48.810;9.012;2023-02-28T00:05:20;2.23;;;1.70;;
8225;SDS011;4154;48.810;9.012;2023-02-28T00:07:49;2.07;;;1.90;;
8225;SDS011;4154;48.810;9.012;2023-02-28T00:10:19;2.43;;;2.00;;
8225;SDS011;4154;48.810;9.012;2023-02-28T00:12:49;2.07;;;1.70;;
8225;SDS011;4154;48.810;9.012;2023-02-28T00:15:16;2.30;;;1.63;;
8225;SDS011;4154;48.810;9.012;2023-02-28T00:17:42;1.80;;;1.70;;
8225;SDS011;4154;48.810;9.012;2023-02-28T00:20:08;2.17;;;1.93;;
8225;SDS011;4154;48.810;9.012;2023-02-28T00:22:43;2.47;;;1.83;;
8225;SDS011;4154;48.810;9.012;2023-02-28T00:25:13;2.70;;;2.00;;
8225;SDS011;4154;48.810;9.012;2023-02-28T00:27:42;2.93;;;1.87;;
8225;SDS011;4154;48.810;9.012;2023-02-28T00:30:09;2.63;;;2.43;;
8225;SDS011;4154;48.810;9.012;2023-02-28T00:32:47;2.50;;;1.97;;
8225;SDS011;4154;48.810;9.012;2023-02-28T00:35:14;3.00;;;2.00;;
8225;SDS011;4154;48.810;9.012;2023-02-28T00:37:40;2.27;;;2.03;;
8225;SDS011;4154;48.810;9.012;2023-02-28T00:40:07;2.00;;;1.90;;
8225;SDS011;4154;48.810;9.012;2023-02-28T00:42:34;2.67;;;2.03;;
8225;SDS011;4154;48.810;9.012;2023-02-28T00:45:00;2.10;;;1.90;;
8225;SDS011;4154;48.810;9.012;2023-02-28T00:47:29;2.10;;;1.90;;
8225;SDS011;4154;48.810;9.012;2023-02-28T00:49:55;2.30;;;2.10;;
8225;SDS011;4154;48.810;9.012;2023-02-28T00:52:21;2.20;;;2.00;;
8225;SDS011;4154;48.810;9.012;2023-02-28T00:54:47;1.97;;;1.77;;
8225;SDS011;4154;48.810;9.012;2023-02-28T00:57:13;3.40;;;1.80;;
8225;SDS011;4154;48.810;9.012;2023-02-28T00:59:38;2.30;;;2.10;;
8225;SDS011;4154;48.810;9.012;2023-02-28T01:02:04;2.53;;;2.33;;
8225;SDS011;4154;48.810;9.012;2023-02-28T01:04:29;2.40;;;2.20;;
8225;SDS011;4154;48.810;9.012;2023-02-28T01:06:55;2.50;;;2.10;;
8225;SDS011;4154;48.810;9.012;2023-02-28T01:09:21;2.30;;;2.00;;
8225;SDS011;4154;48.810;9.012;2023-02-28T01:11:47;2.30;;;2.10;;
8225;SDS011;4154;48.810;9.012;2023-02-28T01:14:13;2.50;;;2.20;;
8225;SDS011;4154;48.810;9.012;2023-02-28T01:16:41;2.40;;;2.20;;
8225;SDS011;4154;48.810;9.012;2023-02-28T01:19:07;2.87;;;2.20;;
8225;SDS011;4154;48.810;9.012;2023-02-28T01:21:33;2.40;;;2.20;;
8225;SDS011;4154;48.810;9.012;2023-02-28T01:24:00;3.73;;;2.60;;
8225;SDS011;4154;48.810;9.012;2023-02-28T01:26:26;2.50;;;2.30;;
8225;SDS011;4154;48.810;9.012;2023-02-28T01:28:52;2.43;;;2.23;;
8225;SDS011;4154;48.810;9.012;2023-02-28T01:31:19;3.10;;;2.40;;
8225;SDS011;4154;48.810;9.012;2023-02-28T01:33:46;2.40;;;2.20;;
8225;SDS011;4154;48.810;9.012;2023-02-28T01:36:13;2.70;;;2.40;;
8225;SDS011;4154;48.810;9.012;2023-02-28T01:38:41;3.97;;;2.37;;
8225;SDS011;4154;48.810;9.012;2023-02-28T01:41:08;2.50;;;2.30;;
8225;SDS011;4154;48.810;9.012;2023-02-28T01:46:08;2.70;;;2.23;;
8225;SDS011;4154;48.810;9.012;2023-02-28T01:48:40;2.43;;;2.23;;
8225;SDS011;4154;48.810;9.012;2023-02-28T01:51:22;2.40;;;2.17;;
8225;SDS011;4154;48.810;9.012;2023-02-28T01:54:12;3.10;;;2.60;;
8225;SDS011;4154;48.810;9.012;2023-02-28T01:56:51;2.97;;;2.60;;
8225;SDS011;4154;48.810;9.012;2023-02-28T01:59:31;2.93;;;2.63;;
8225;SDS011;4154;48.810;9.012;2023-02-28T02:02:11;2.57;;;2.37;;
8225;SDS011;4154;48.810;9.012;2023-02-28T02:04:43;2.73;;;2.40;;
8225;SDS011;4154;48.810;9.012;2023-02-28T02:07:21;2.87;;;2.53;;
8225;SDS011;4154;48.810;9.012;2023-02-28T02:09:56;3.20;;;2.80;;
8225;SDS011;4154;48.810;9.012;2023-02-28T02:18:43;3.10;;;2.53;;
8225;SDS011;4154;48.810;9.012;2023-02-28T02:35:54;3.97;;;2.90;;
8225;SDS011;4154;48.810;9.012;2023-02-28T02:38:27;2.87;;;2.67;;
8225;SDS011;4154;48.810;9.012;2023-02-28T02:43:40;4.03;;;2.90;;
8225;SDS011;4154;48.810;9.012;2023-02-28T02:46:20;2.67;;;2.47;;
8225;SDS011;4154;48.810;9.012;2023-02-28T02:48:57;2.63;;;2.43;;
8225;SDS011;4154;48.810;9.012;2023-02-28T02:51:29;2.90;;;2.70;;
8225;SDS011;4154;48.810;9.012;2023-02-28T02:54:00;4.57;;;2.73;;
8225;SDS011;4154;48.810;9.012;2023-02-28T02:56:36;3.07;;;2.73;;
8225;SDS011;4154;48.810;9.012;2023-02-28T02:59:09;3.23;;;2.93;;
8225;SDS011;4154;48.810;9.012;2023-02-28T03:01:39;3.43;;;2.60;;
8225;SDS011;4154;48.810;9.012;2023-02-28T03:04:11;3.40;;;2.80;;
8225;SDS011;4154;48.810;9.012;2023-02-28T03:06:43;3.03;;;2.63;;
8225;SDS011;4154;48.810;9.012;2023-02-28T03:09:09;2.90;;;2.60;;
8225;SDS011;4154;48.810;9.012;2023-02-28T03:11:35;2.43;;;2.23;;
8225;SDS011;4154;48.810;9.012;2023-02-28T03:20:26;3.17;;;2.80;;
8225;SDS011;4154;48.810;9.012;2023-02-28T03:23:04;3.23;;;2.90;;
8225;SDS011;4154;48.810;9.012;2023-02-28T03:26:07;2.90;;;2.60;;
8225;SDS011;4154;48.810;9.012;2023-02-28T03:29:05;2.80;;;2.60;;
8225;SDS011;4154;48.810;9.012;2023-02-28T03:31:48;4.07;;;2.87;;
8225;SDS011;4154;48.810;9.012;2023-02-28T03:34:29;3.23;;;2.93;;
8225;SDS011;4154;48.810;9.012;2023-02-28T03:37:05;3.07;;;2.63;;
8225;SDS011;4154;48.810;9.012;2023-02-28T03:39:49;3.30;;;3.00;;
8225;SDS011;4154;48.810;9.012;2023-02-28T03:42:31;3.07;;;2.77;;
8225;SDS011;4154;48.810;9.012;2023-02-28T03:45:05;3.60;;;2.70;;
8225;SDS011;4154;48.810;9.012;2023-02-28T03:47:45;2.77;;;2.50;;
8225;SDS011;4154;48.810;9.012;2023-02-28T03:50:26;2.77;;;2.57;;
8225;SDS011;4154;48.810;9.012;2023-02-28T03:53:05;3.40;;;3.07;;
8225;SDS011;4154;48.810;9.012;2023-02-28T03:55:45;3.37;;;3.07;;
8225;SDS011;4154;48.810;9.012;2023-02-28T03:58:37;3.00;;;2.70;;
8225;SDS011;4154;48.810;9.012;2023-02-28T04:03:59;3.10;;;2.80;;
8225;SDS011;4154;48.810;9.012;2023-02-28T04:06:25;3.47;;;3.17;;
8225;SDS011;4154;48.810;9.012;2023-02-28T04:08:52;3.17;;;2.90;;
8225;SDS011;4154;48.810;9.012;2023-02-28T04:11:19;3.27;;;2.93;;
8225;SDS011;4154;48.810;9.012;2023-02-28T04:13:52;3.57;;;3.20;;
8225;SDS011;4154;48.810;9.012;2023-02-28T04:16:18;3.70;;;3.00;;
8225;SDS011;4154;48.810;9.012;2023-02-28T04:18:44;3.50;;;3.17;;
8225;SDS011;4154;48.810;9.012;2023-02-28T04:21:10;3.30;;;3.00;;
8225;SDS011;4154;48.810;9.012;2023-02-28T04:23:37;3.80;;;3.03;;
8225;SDS011;4154;48.810;9.012;2023-02-28T04:26:03;3.40;;;3.10;;
8225;SDS011;4154;48.810;9.012;2023-02-28T04:28:30;3.50;;;3.20;;
8225;SDS011;4154;48.810;9.012;2023-02-28T04:31:02;3.80;;;3.37;;
8225;SDS011;4154;48.810;9.012;2023-02-28T04:33:29;3.80;;;3.40;;
8225;SDS011;4154;48.810;9.012;2023-02-28T04:36:01;4.33;;;3.10;;
8225;SDS011;4154;48.810;9.012;2023-02-28T04:38:30;3.50;;;3.20;;
8225;SDS011;4154;48.810;9.012;2023-02-28T04:41:03;3.43;;;3.13;;
8225;SDS011;4154;48.810;9.012;2023-02-28T04:43:30;3.60;;;3.30;;
8225;SDS011;4154;48.810;9.012;2023-02-28T04:45:57;3.90;;;3.60;;
8225;SDS011;4154;48.810;9.012;2023-02-28T04:48:27;4.07;;;3.50;;
8225;SDS011;4154;48.810;9.012;2023-02-28T04:50:54;3.70;;;3.40;;
8225;SDS011;4154;48.810;9.012;2023-02-28T04:53:20;3.50;;;3.20;;
8225;SDS011;4154;48.810;9.012;2023-02-28T04:55:46;4.70;;;3.63;;
8225;SDS011;4154;48.810;9.012;2023-02-28T04:58:12;3.83;;;3.37;;
8225;SDS011;4154;48.810;9.012;2023-02-28T05:00:39;3.60;;;3.17;;
8225;SDS011;4154;48.810;9.012;2023-02-28T05:03:05;4.80;;;3.60;;
8225;SDS011;4154;48.810;9.012;2023-02-28T05:05:32;3.83;;;3.53;;
8225;SDS011;4154;48.810;9.012;2023-02-28T05:07:57;3.70;;;3.40;;
8225;SDS011;4154;48.810;9.012;2023-02-28T05:10:23;3.73;;;3.30;;
8225;SDS011;4154;48.810;9.012;2023-02-28T05:12:49;3.80;;;3.40;;
8225;SDS011;4154;48.810;9.012;2023-02-28T05:15:15;4.57;;;3.40;;
8225;SDS011;4154;48.810;9.012;2023-02-28T05:17:41;4.23;;;3.70;;
8225;SDS011;4154;48.810;9.012;2023-02-28T05:20:08;4.50;;;4.10;;
8225;SDS011;4154;48.810;9.012;2023-02-28T05:22:38;4.43;;;3.63;;
8225;SDS011;4154;48.810;9.012;2023-02-28T05:25:05;3.90;;;3.60;;
8225;SDS011;4154;48.810;9.012;2023-02-28T05:27:33;5.20;;;3.90;;
8225;SDS011;4154;48.810;9.012;2023-02-28T05:29:59;4.00;;;3.60;;
8225;SDS011;4154;48.810;9.012;2023-02-28T05:32:27;3.77;;;3.40;;
8225;SDS011;4154;48.810;9.012;2023-02-28T05:34:53;6.33;;;3.70;;
8225;SDS011;4154;48.810;9.012;2023-02-28T05:37:19;4.33;;;3.80;;
8225;SDS011;4154;48.810;9.012;2023-02-28T05:39:44;4.33;;;3.93;;
8225;SDS011;4154;48.810;9.012;2023-02-28T05:42:10;4.57;;;3.87;;
8225;SDS011;4154;48.810;9.012;2023-02-28T05:44:36;3.90;;;3.60;;
8225;SDS011;4154;48.810;9.012;2023-02-28T05:47:02;4.80;;;3.93;;
8225;SDS011;4154;48.810;9.012;2023-02-28T05:49:28;4.40;;;3.83;;
8225;SDS011;4154;48.810;9.012;2023-02-28T05:51:54;4.27;;;3.87;;
8225;SDS011;4154;48.810;9.012;2023-02-28T05:54:19;4.50;;;4.10;;
8225;SDS011;4154;48.810;9.012;2023-02-28T05:56:45;4.30;;;3.90;;
8225;SDS011;4154;48.810;9.012;2023-02-28T05:59:13;5.83;;;4.20;;
8225;SDS011;4154;48.810;9.012;2023-02-28T06:01:43;4.43;;;3.83;;
8225;SDS011;4154;48.810;9.012;2023-02-28T06:04:13;6.83;;;4.07;;
8225;SDS011;4154;48.810;9.012;2023-02-28T06:06:44;4.50;;;4.10;;
8225;SDS011;4154;48.810;9.012;2023-02-28T06:09:11;4.40;;;4.00;;
8225;SDS011;4154;48.810;9.012;2023-02-28T06:11:37;4.87;;;3.80;;
8225;SDS011;4154;48.810;9.012;2023-02-28T06:14:03;4.50;;;4.03;;
8225;SDS011;4154;48.810;9.012;2023-02-28T06:16:30;4.57;;;3.83;;
8225;SDS011;4154;48.810;9.012;2023-02-28T06:18:59;4.80;;;4.37;;
8225;SDS011;4154;48.810;9.012;2023-02-28T06:21:27;4.73;;;3.90;;
8225;SDS011;4154;48.810;9.012;2023-02-28T06:23:53;4.47;;;4.03;;
8225;SDS011;4154;48.810;9.012;2023-02-28T06:26:20;4.40;;;4.00;;
8225;SDS011;4154;48.810;9.012;2023-02-28T06:28:46;4.27;;;3.87;;
8225;SDS011;4154;48.810;9.012;2023-02-28T06:31:13;4.40;;;4.00;;
8225;SDS011;4154;48.810;9.012;2023-02-28T06:33:41;4.43;;;3.90;;
8225;SDS011;4154;48.810;9.012;2023-02-28T06:36:10;4.40;;;3.97;;
8225;SDS011;4154;48.810;9.012;2023-02-28T06:38:38;5.23;;;4.10;;
8225;SDS011;4154;48.810;9.012;2023-02-28T06:41:04;5.03;;;4.57;;
8225;SDS011;4154;48.810;9.012;2023-02-28T06:43:33;4.60;;;4.03;;
8225;SDS011;4154;48.810;9.012;2023-02-28T06:46:03;4.37;;;3.97;;
8225;SDS011;4154;48.810;9.012;2023-02-28T06:48:32;4.33;;;3.93;;
8225;SDS011;4154;48.810;9.012;2023-02-28T06:51:03;5.10;;;4.60;;
8225;SDS011;4154;48.810;9.012;2023-02-28T06:53:35;5.30;;;4.37;;
8225;SDS011;4154;48.810;9.012;2023-02-28T06:56:05;4.47;;;4.07;;
8225;SDS011;4154;48.810;9.012;2023-02-28T06:58:34;4.83;;;4.33;;
8225;SDS011;4154;48.810;9.012;2023-02-28T07:01:01;4.80;;;4.30;;
8225;SDS011;4154;48.810;9.012;2023-02-28T07:03:28;5.03;;;4.60;;
8225;SDS011;4154;48.810;9.012;2023-02-28T07:05:55;4.90;;;4.50;;
8225;SDS011;4154;48.810;9.012;2023-02-28T07:08:21;4.83;;;4.33;;
8225;SDS011;4154;48.810;9.012;2023-02-28T07:10:51;4.93;;;4.43;;
8225;SDS011;4154;48.810;9.012;2023-02-28T07:13:18;4.70;;;4.30;;
8225;SDS011;4154;48.810;9.012;2023-02-28T07:15:52;5.20;;;4.63;;
8225;SDS011;4154;48.810;9.012;2023-02-28T07:18:26;4.90;;;4.40;;
8225;SDS011;4154;48.810;9.012;2023-02-28T07:20:52;5.43;;;4.43;;
8225;SDS011;4154;48.810;9.012;2023-02-28T07:23:18;5.00;;;4.50;;
8225;SDS011;4154;48.810;9.012;2023-02-28T07:25:45;5.80;;;4.53;;
8225;SDS011;4154;48.810;9.012;2023-02-28T07:28:12;4.97;;;4.47;;
8225;SDS011;4154;48.810;9.012;2023-02-28T07:30:39;4.87;;;4.23;;
8225;SDS011;4154;48.810;9.012;2023-02-28T07:33:04;5.73;;;4.67;;
8225;SDS011;4154;48.810;9.012;2023-02-28T07:35:30;5.30;;;4.40;;
8225;SDS011;4154;48.810;9.012;2023-02-28T07:37:59;5.07;;;4.57;;
8225;SDS011;4154;48.810;9.012;2023-02-28T07:40:25;5.10;;;4.53;;
8225;SDS011;4154;48.810;9.012;2023-02-28T07:42:52;5.17;;;4.57;;
8225;SDS011;4154;48.810;9.012;2023-02-28T07:45:18;5.33;;;4.50;;
8225;SDS011;4154;48.810;9.012;2023-02-28T07:47:44;4.93;;;4.50;;
8225;SDS011;4154;48.810;9.012;2023-02-28T07:50:11;4.60;;;4.20;;
8225;SDS011;4154;48.810;9.012;2023-02-28T07:52:41;5.07;;;4.57;;
8225;SDS011;4154;48.810;9.012;2023-02-28T07:55:07;4.80;;;4.40;;
8225;SDS011;4154;48.810;9.012;2023-02-28T07:57:35;5.40;;;4.80;;
8225;SDS011;4154;48.810;9.012;2023-02-28T08:00:02;7.10;;;4.93;;
8225;SDS011;4154;48.810;9.012;2023-02-28T08:02:30;5.53;;;4.50;;
8225;SDS011;4154;48.810;9.012;2023-02-28T08:04:56;5.10;;;4.60;;
8225;SDS011;4154;48.810;9.012;2023-02-28T08:07:21;5.27;;;4.77;;
8225;SDS011;4154;48.810;9.012;2023-02-28T08:09:47;4.97;;;4.47;;
8225;SDS011;4154;48.810;9.012;2023-02-28T08:12:13;5.27;;;4.57;;
8225;SDS011;4154;48.810;9.012;2023-02-28T08:14:39;5.20;;;4.70;;
8225;SDS011;4154;48.810;9.012;2023-02-28T08:17:05;6.07;;;5.03;;
8225;SDS011;4154;48.810;9.012;2023-02-28T08:19:31;5.10;;;4.70;;
8225;SDS011;4154;48.810;9.012;2023-02-28T08:21:58;5.30;;;4.80;;
8225;SDS011;4154;48.810;9.012;2023-02-28T08:24:23;5.33;;;4.83;;
8225;SDS011;4154;48.810;9.012;2023-02-28T08:26:49;6.47;;;5.10;;
8225;SDS011;4154;48.810;9.012;2023-02-28T08:29:15;5.80;;;4.83;;
8225;SDS011;4154;48.810;9.012;2023-02-28T08:31:41;5.43;;;4.80;;
8225;SDS011;4154;48.810;9.012;2023-02-28T08:34:08;5.50;;;5.00;;
8225;SDS011;4154;48.810;9.012;2023-02-28T08:36:36;5.97;;;4.83;;
8225;SDS011;4154;48.810;9.012;2023-02-28T08:39:02;5.20;;;4.73;;
8225;SDS011;4154;48.810;9.012;2023-02-28T08:41:29;5.50;;;5.00;;
8225;SDS011;4154;48.810;9.012;2023-02-28T08:43:55;5.50;;;4.90;;
8225;SDS011;4154;48.810;9.012;2023-02-28T08:46:23;6.20;;;5.33;;
8225;SDS011;4154;48.810;9.012;2023-02-28T08:48:53;6.10;;;5.30;;
8225;SDS011;4154;48.810;9.012;2023-02-28T08:51:24;5.67;;;4.97;;
8225;SDS011;4154;48.810;9.012;2023-02-28T08:53:57;5.73;;;5.00;;
8225;SDS011;4154;48.810;9.012;2023-02-28T08:56:25;5.70;;;5.20;;
8225;SDS011;4154;48.810;9.012;2023-02-28T08:58:54;5.57;;;4.97;;
8225;SDS011;4154;48.810;9.012;2023-02-28T09:01:23;5.60;;;5.07;;
8225;SDS011;4154;48.810;9.012;2023-02-28T09:03:54;5.53;;;4.73;;
8225;SDS011;4154;48.810;9.012;2023-02-28T09:06:21;5.97;;;5.37;;
8225;SDS011;4154;48.810;9.012;2023-02-28T09:08:50;6.10;;;5.50;;
8225;SDS011;4154;48.810;9.012;2023-02-28T09:11:17;5.83;;;5.23;;
8225;SDS011;4154;48.810;9.012;2023-02-28T09:13:44;6.33;;;5.73;;
8225;SDS011;4154;48.810;9.012;2023-02-28T09:16:12;6.20;;;5.60;;
8225;SDS011;4154;48.810;9.012;2023-02-28T09:18:41;6.83;;;5.70;;
8225;SDS011;4154;48.810;9.012;2023-02-28T09:21:08;6.30;;;5.70;;
8225;SDS011;4154;48.810;9.012;2023-02-28T09:23:38;6.13;;;5.53;;
8225;SDS011;4154;48.810;9.012;2023-02-28T09:26:06;7.57;;;5.93;;
8225;SDS011;4154;48.810;9.012;2023-02-28T09:28:32;5.77;;;5.03;;
8225;SDS011;4154;48.810;9.012;2023-02-28T09:30:58;6.37;;;5.77;;
8225;SDS011;4154;48.810;9.012;2023-02-28T09:33:24;6.23;;;5.50;;
8225;SDS011;4154;48.810;9.012;2023-02-28T09:35:51;6.27;;;5.40;;
8225;SDS011;4154;48.810;9.012;2023-02-28T09:38:23;6.23;;;5.67;;
8225;SDS011;4154;48.810;9.012;2023-02-28T09:40:50;6.27;;;5.50;;
8225;SDS011;4154;48.810;9.012;2023-02-28T09:43:25;6.17;;;5.50;;
8225;SDS011;4154;48.810;9.012;2023-02-28T09:48:56;6.10;;;5.50;;
8225;SDS011;4154;48.810;9.012;2023-02-28T09:54:11;7.10;;;5.90;;
8225;SDS011;4154;48.810;9.012;2023-02-28T09:56:44;6.10;;;5.50;;
8225;SDS011;4154;48.810;9.012;2023-02-28T09:59:34;6.77;;;5.80;;
8225;SDS011;4154;48.810;9.012;2023-02-28T10:02:53;7.30;;;6.60;;
8225;SDS011;4154;48.810;9.012;2023-02-28T10:05:33;6.00;;;5.40;;
8225;SDS011;4154;48.810;9.012;2023-02-28T10:08:29;6.73;;;5.90;;
8225;SDS011;4154;48.810;9.012;2023-02-28T10:11:07;6.47;;;5.87;;
8225;SDS011;4154;48.810;9.012;2023-02-28T10:16:36;6.73;;;5.97;;
8225;SDS011;4154;48.810;9.012;2023-02-28T10:22:24;7.17;;;5.50;;
8225;SDS011;4154;48.810;9.012;2023-02-28T10:25:21;6.73;;;6.03;;
8225;SDS011;4154;48.810;9.012;2023-02-28T10:27:52;6.73;;;6.03;;
8225;SDS011;4154;48.810;9.012;2023-02-28T10:30:25;6.37;;;5.63;;
8225;SDS011;4154;48.810;9.012;2023-02-28T10:32:51;6.50;;;5.80;;
8225;SDS011;4154;48.810;9.012;2023-02-28T10:35:20;8.13;;;5.83;;
8225;SDS011;4154;48.810;9.012;2023-02-28T10:37:50;6.47;;;5.87;;
8225;SDS011;4154;48.810;9.012;2023-02-28T10:42:55;6.60;;;5.93;;
8225;SDS011;4154;48.810;9.012;2023-02-28T10:45:28;6.97;;;5.93;;
8225;SDS011;4154;48.810;9.012;2023-02-28T10:48:41;7.07;;;5.77;;
8225;SDS011;4154;48.810;9.012;2023-02-28T10:58:46;6.70;;;6.10;;
8225;SDS011;4154;48.810;9.012;2023-02-28T11:01:20;6.70;;;6.07;;
8225;SDS011;4154;48.810;9.012;2023-02-28T11:04:16;7.00;;;6.20;;
8225;SDS011;4154;48.810;9.012;2023-02-28T11:07:33;6.73;;;6.13;;
8225;SDS011;4154;48.810;9.012;2023-02-28T11:09:51;6.93;;;6.23;;
8225;SDS011;4154;48.810;9.012;2023-02-28T11:14:58;7.90;;;7.07;;
8225;SDS011;4154;48.810;9.012;2023-02-28T11:17:31;6.73;;;6.13;;
8225;SDS011;4154;48.810;9.012;2023-02-28T11:19:58;7.33;;;6.20;;
8225;SDS011;4154;48.810;9.012;2023-02-28T11:22:32;6.87;;;6.17;;
8225;SDS011;4154;48.810;9.012;2023-02-28T11:25:08;6.77;;;6.07;;
8225;SDS011;4154;48.810;9.012;2023-02-28T11:27:47;7.43;;;6.63;;
8225;SDS011;4154;48.810;9.012;2023-02-28T11:30:23;7.57;;;6.87;;
8225;SDS011;4154;48.810;9.012;2023-02-28T11:32:53;8.33;;;6.70;;
8225;SDS011;4154;48.810;9.012;2023-02-28T11:37:59;7.63;;;6.93;;
8225;SDS011;4154;48.810;9.012;2023-02-28T11:40:36;7.83;;;6.43;;
8225;SDS011;4154;48.810;9.012;2023-02-28T11:46:51;6.80;;;6.13;;
8225;SDS011;4154;48.810;9.012;2023-02-28T11:52:26;7.40;;;6.70;;
8225;SDS011;4154;48.810;9.012;2023-02-28T11:55:17;7.50;;;6.80;;
8225;SDS011;4154;48.810;9.012;2023-02-28T12:00:57;7.03;;;6.33;;
8225;SDS011;4154;48.810;9.012;2023-02-28T12:03:52;7.73;;;6.80;;
8225;SDS011;4154;48.810;9.012;2023-02-28T12:06:47;7.73;;;7.03;;
8225;SDS011;4154;48.810;9.012;2023-02-28T12:10:02;9.00;;;6.67;;
8225;SDS011;4154;48.810;9.012;2023-02-28T12:15:41;7.27;;;6.60;;
8225;SDS011;4154;48.810;9.012;2023-02-28T12:26:38;7.27;;;6.57;;
8225;SDS011;4154;48.810;9.012;2023-02-28T12:29:13;6.67;;;6.07;;
8225;SDS011;4154;48.810;9.012;2023-02-28T12:34:47;6.93;;;6.33;;
8225;SDS011;4154;48.810;9.012;2023-02-28T12:37:22;6.80;;;6.10;;
8225;SDS011;4154;48.810;9.012;2023-02-28T12:40:05;6.70;;;6.10;;
8225;SDS011;4154;48.810;9.012;2023-02-28T12:42:39;7.17;;;6.47;;
8225;SDS011;4154;48.810;9.012;2023-02-28T12:47:42;6.83;;;6.13;;
8225;SDS011;4154;48.810;9.012;2023-02-28T12:50:12;7.20;;;6.50;;
8225;SDS011;4154;48.810;9.012;2023-02-28T12:52:47;7.33;;;6.37;;
8225;SDS011;4154;48.810;9.012;2023-02-28T12:55:27;7.50;;;5.90;;
8225;SDS011;4154;48.810;9.012;2023-02-28T12:58:14;6.53;;;5.93;;
8225;SDS011;4154;48.810;9.012;2023-02-28T13:01:22;6.97;;;6.30;;
8225;SDS011;4154;48.810;9.012;2023-02-28T13:09:51;6.67;;;5.97;;
8225;SDS011;4154;48.810;9.012;2023-02-28T13:12:19;7.20;;;6.50;;
8225;SDS011;4154;48.810;9.012;2023-02-28T13:14:47;6.57;;;5.97;;
8225;SDS011;4154;48.810;9.012;2023-02-28T13:17:21;6.67;;;6.00;;
8225;SDS011;4154;48.810;9.012;2023-02-28T13:24:52;6.40;;;5.80;;
8225;SDS011;4154;48.810;9.012;2023-02-28T13:29:57;6.60;;;6.00;;
8225;SDS011;4154;48.810;9.012;2023-02-28T13:32:31;6.37;;;5.80;;
8225;SDS011;4154;48.810;9.012;2023-02-28T13:43:02;6.90;;;6.20;;
8225;SDS011;4154;48.810;9.012;2023-02-28T13:45:32;8.20;;;6.43;;
8225;SDS011;4154;48.810;9.012;2023-02-28T13:48:04;7.20;;;6.50;;
8225;SDS011;4154;48.810;9.012;2023-02-28T13:50:47;6.73;;;6.03;;
8225;SDS011;4154;48.810;9.012;2023-02-28T14:07:32;7.20;;;6.50;;
8225;SDS011;4154;48.810;9.012;2023-02-28T14:16:13;6.97;;;5.70;;
8225;SDS011;4154;48.810;9.012;2023-02-28T14:18:55;8.40;;;6.33;;
8225;SDS011;4154;48.810;9.012;2023-02-28T14:21:31;6.60;;;6.00;;
8225;SDS011;4154;48.810;9.012;2023-02-28T14:26:45;8.33;;;6.60;;
8225;SDS011;4154;48.810;9.012;2023-02-28T14:32:21;6.73;;;6.03;;
8225;SDS011;4154;48.810;9.012;2023-02-28T14:37:44;7.13;;;6.20;;
8225;SDS011;4154;48.810;9.012;2023-02-28T14:40:14;7.07;;;6.37;;
8225;SDS011;4154;48.810;9.012;2023-02-28T14:42:59;9.90;;;5.87;;
8225;SDS011;4154;48.810;9.012;2023-02-28T14:45:29;7.60;;;6.10;;
8225;SDS011;4154;48.810;9.012;2023-02-28T14:47:58;7.17;;;6.33;;
8225;SDS011;4154;48.810;9.012;2023-02-28T14:50:33;7.47;;;6.60;;
8225;SDS011;4154;48.810;9.012;2023-02-28T14:53:02;6.53;;;5.83;;
8225;SDS011;4154;48.810;9.012;2023-02-28T14:55:30;7.60;;;6.90;;
8225;SDS011;4154;48.810;9.012;2023-02-28T14:58:00;7.00;;;6.30;;
8225;SDS011;4154;48.810;9.012;2023-02-28T15:00:46;7.10;;;6.40;;
8225;SDS011;4154;48.810;9.012;2023-02-28T15:03:19;7.03;;;6.33;;
8225;SDS011;4154;48.810;9.012;2023-02-28T15:06:05;6.97;;;6.30;;
8225;SDS011;4154;48.810;9.012;2023-02-28T15:08:39;7.07;;;6.37;;
8225;SDS011;4154;48.810;9.012;2023-02-28T15:11:11;7.33;;;6.63;;
8225;SDS011;4154;48.810;9.012;2023-02-28T15:13:42;7.00;;;6.37;;
8225;SDS011;4154;48.810;9.012;2023-02-28T15:16:12;6.90;;;6.20;;
8225;SDS011;4154;48.810;9.012;2023-02-28T15:18:57;6.67;;;6.07;;
8225;SDS011;4154;48.810;9.012;2023-02-28T15:24:00;6.93;;;6.23;;
8225;SDS011;4154;48.810;9.012;2023-02-28T15:26:38;7.20;;;6.40;;
8225;SDS011;4154;48.810;9.012;2023-02-28T15:29:15;6.50;;;5.87;;
8225;SDS011;4154;48.810;9.012;2023-02-28T15:31:56;7.20;;;6.03;;
8225;SDS011;4154;48.810;9.012;2023-02-28T15:34:41;6.70;;;6.10;;
8225;SDS011;4154;48.810;9.012;2023-02-28T15:45:46;6.73;;;6.13;;
8225;SDS011;4154;48.810;9.012;2023-02-28T15:51:18;7.53;;;6.40;;
8225;SDS011;4154;48.810;9.012;2023-02-28T15:56:33;7.23;;;6.53;;
8225;SDS011;4154;48.810;9.012;2023-02-28T15:59:18;6.87;;;6.10;;
8225;SDS011;4154;48.810;9.012;2023-02-28T16:02:03;7.03;;;6.20;;
8225;SDS011;4154;48.810;9.012;2023-02-28T16:04:58;6.93;;;6.20;;
8225;SDS011;4154;48.810;9.012;2023-02-28T16:07:26;7.37;;;6.67;;
8225;SDS011;4154;48.810;9.012;2023-02-28T16:09:52;7.70;;;6.53;;
8225;SDS011;4154;48.810;9.012;2023-02-28T16:12:19;9.07;;;6.70;;
8225;SDS011;4154;48.810;9.012;2023-02-28T16:14:50;8.27;;;7.37;;
8225;SDS011;4154;48.810;9.012;2023-02-28T16:17:26;8.00;;;7.20;;
8225;SDS011;4154;48.810;9.012;2023-02-28T16:19:55;8.40;;;6.73;;
8225;SDS011;4154;48.810;9.012;2023-02-28T16:22:21;8.10;;;7.30;;
8225;SDS011;4154;48.810;9.012;2023-02-28T16:24:47;8.40;;;6.77;;
8225;SDS011;4154;48.810;9.012;2023-02-28T16:27:17;9.13;;;7.23;;
8225;SDS011;4154;48.810;9.012;2023-02-28T16:29:55;8.50;;;7.67;;
8225;SDS011;4154;48.810;9.012;2023-02-28T16:32:21;8.33;;;7.47;;
8225;SDS011;4154;48.810;9.012;2023-02-28T16:34:46;7.60;;;6.90;;
8225;SDS011;4154;48.810;9.012;2023-02-28T16:37:13;9.47;;;8.07;;
8225;SDS011;4154;48.810;9.012;2023-02-28T16:39:42;8.03;;;7.23;;
8225;SDS011;4154;48.810;9.012;2023-02-28T16:42:21;7.33;;;6.63;;
8225;SDS011;4154;48.810;9.012;2023-02-28T16:44:53;8.53;;;7.63;;
8225;SDS011;4154;48.810;9.012;2023-02-28T16:47:20;8.43;;;6.90;;
8225;SDS011;4154;48.810;9.012;2023-02-28T16:49:47;7.60;;;6.83;;
8225;SDS011;4154;48.810;9.012;2023-02-28T16:52:13;8.70;;;7.40;;
8225;SDS011;4154;48.810;9.012;2023-02-28T16:54:39;8.80;;;6.73;;
8225;SDS011;4154;48.810;9.012;2023-02-28T16:57:08;8.37;;;7.13;;
8225;SDS011;4154;48.810;9.012;2023-02-28T16:59:46;7.33;;;6.60;;
8225;SDS011;4154;48.810;9.012;2023-02-28T17:02:14;7.60;;;6.80;;
8225;SDS011;4154;48.810;9.012;2023-02-28T17:04:44;7.70;;;7.00;;
8225;SDS011;4154;48.810;9.012;2023-02-28T17:07:10;8.07;;;7.27;;
8225;SDS011;4154;48.810;9.012;2023-02-28T17:09:38;8.27;;;7.40;;
8225;SDS011;4154;48.810;9.012;2023-02-28T17:12:05;9.03;;;7.03;;
8225;SDS011;4154;48.810;9.012;2023-02-28T17:14:32;7.90;;;7.07;;
8225;SDS011;4154;48.810;9.012;2023-02-28T17:16:57;8.23;;;7.43;;
8225;SDS011;4154;48.810;9.012;2023-02-28T17:19:23;8.07;;;7.07;;
8225;SDS011;4154;48.810;9.012;2023-02-28T17:21:48;8.60;;;7.70;;
8225;SDS011;4154;48.810;9.012;2023-02-28T17:24:14;8.30;;;7.47;;
8225;SDS011;4154;48.810;9.012;2023-02-28T17:26:41;8.03;;;7.23;;
8225;SDS011;4154;48.810;9.012;2023-02-28T17:29:14;7.87;;;7.10;;
8225;SDS011;4154;48.810;9.012;2023-02-28T17:31:43;7.87;;;7.07;;
8225;SDS011;4154;48.810;9.012;2023-02-28T17:34:09;7.97;;;7.17;;
8225;SDS011;4154;48.810;9.012;2023-02-28T17:36:35;7.80;;;7.00;;
8225;SDS011;4154;48.810;9.012;2023-02-28T17:39:03;7.67;;;6.80;;
8225;SDS011;4154;48.810;9.012;2023-02-28T17:41:34;8.30;;;7.50;;
8225;SDS011;4154;48.810;9.012;2023-02-28T17:44:00;8.37;;;7.50;;
8225;SDS011;4154;48.810;9.012;2023-02-28T17:46:26;8.83;;;7.60;;
8225;SDS011;4154;48.810;9.012;2023-02-28T17:48:53;8.03;;;7.23;;
8225;SDS011;4154;48.810;9.012;2023-02-28T17:51:21;7.90;;;7.10;;
8225;SDS011;4154;48.810;9.012;2023-02-28T17:53:50;9.17;;;8.17;;
8225;SDS011;4154;48.810;9.012;2023-02-28T17:56:21;9.20;;;8.10;;
8225;SDS011;4154;48.810;9.012;2023-02-28T17:58:49;9.53;;;8.53;;
8225;SDS011;4154;48.810;9.012;2023-02-28T18:01:17;11.03;;;9.70;;
8225;SDS011;4154;48.810;9.012;2023-02-28T18:03:45;10.77;;;8.53;;
8225;SDS011;4154;48.810;9.012;2023-02-28T18:06:54;9.17;;;8.20;;
8225;SDS011;4154;48.810;9.012;2023-02-28T18:09:13;9.93;;;8.93;;
8225;SDS011;4154;48.810;9.012;2023-02-28T18:11:40;8.87;;;7.97;;
8225;SDS011;4154;48.810;9.012;2023-02-28T18:14:06;9.47;;;8.40;;
8225;SDS011;4154;48.810;9.012;2023-02-28T18:16:32;9.70;;;8.63;;